Wills Point, Texas
Current Conditions -  °F | °C
As of 5:53 PM on Friday 31 Oct 2014 (Local Time) from KTRL Reporting Station
Clear Clear  
Wind Chill: 64°   Ceiling: Unl
Heat Index: 64°   Visibility: 10mi
Dew Point: 39°   Wind: 12mph
Humidity: 40%   Direction: 20°NNE
Pressure: 30.29"   Gusts: NA
Location:  32.71°N, 96.01°W
Report Text: KTRL 312253Z AUTO 02010KT 10SM CLR 18/04 A3029 RMK AO2 SLP255 T01780039
Loading
Personal Weather Stations






























Interactive Weather Map
Tropical Storm Tracking
New forecast layout! Learn more

10-Day Weather Forecast

Advertisements
Track Severe Weather on mobile